Latest Weather Observations for Ballarat

IDV60801

Issued at 8:05 pm EST Friday 25 July 2014 (issued every 30 minutes, with the page automatically refreshed every 10 minutes)

About weather observations | Map of weather stations | Latest weather observations for VIC | Other Formats
Station Details ID: 089002 Name: BALLARAT AERODROME Lat: -37.51 Lon: 143.79 Height: 435.2 m
Data from the previous 72 hours. | See also: Recent months at Ballarat
Date/Time
EST
Temp
°C
App
Temp
°C
Dew
Point
Rel
Hum
%
Delta-T
°C
Wind Press
QNH
hPa
Press
MSL
hPa
Rain
since 9 am
mm
Dir
 
Spd
km/h
Gust
km/h
Spd
kts
Gust
kts
25/08:00pm 8.1 4.4 8.1 100 0.0 N 17 19 9 10 1018.7 - 0.2
25/07:30pm 8.7 5.9 8.7 100 0.0 N 13 17 7 9 1018.5 - 0.2
25/07:00pm 9.2 6.2 9.2 100 0.0 N 15 19 8 10 1018.1 - 0.2
25/06:43pm 9.2 6.2 9.2 100 0.0 N 15 17 8 9 1018.0 - 0.2
25/06:30pm 9.3 7.1 9.2 99 0.1 N 11 17 6 9 1017.9 - 0.2
25/06:24pm 9.2 6.5 9.1 99 0.1 N 13 17 7 9 1017.9 - 0.2
25/06:00pm 9.4 6.0 9.3 99 0.1 N 17 20 9 11 1017.4 1018.3 0.2
25/05:30pm 9.6 6.3 9.5 99 0.1 N 17 20 9 11 1017.1 - 0.2
25/05:16pm 9.7 6.4 9.6 99 0.1 N 17 20 9 11 1017.0 - 0.0
25/05:00pm 9.9 6.3 9.8 99 0.1 N 19 22 10 12 1016.8 - 0.0
25/04:30pm 10.2 6.1 10.0 99 0.1 NNW 22 28 12 15 1016.4 - 0.0
25/04:00pm 10.2 5.7 10.0 99 0.1 N 24 30 13 16 1016.0 - 0.0
25/03:30pm 10.4 5.6 10.2 99 0.1 N 26 32 14 17 1015.9 - 0.0
25/03:18pm 10.2 5.3 10.0 99 0.1 N 26 32 14 17 1015.8 - 0.0
25/03:01pm 10.0 4.7 9.9 99 0.1 N 28 35 15 19 1015.6 - 0.0
25/03:00pm 10.0 4.7 9.9 99 0.1 N 28 35 15 19 1015.6 1016.5 0.0
25/02:30pm 10.2 4.6 10.0 99 0.1 N 30 37 16 20 1015.5 - 0.0
25/02:00pm 10.3 5.4 10.1 99 0.1 N 26 35 14 19 1015.4 - 0.0
25/01:30pm 10.0 4.3 9.9 99 0.1 N 30 37 16 20 1015.3 - 0.0
25/01:00pm 9.9 3.7 9.9 100 0.0 N 33 43 18 23 1015.4 - 0.0
25/12:30pm 9.5 - 9.6 - - N 30 37 16 20 1015.6 - 0.0
25/12:00pm 9.3 - 9.4 - - N 30 39 16 21 1015.7 1016.6 0.0
25/11:30am 8.9 - 9.0 - - N 28 37 15 20 1016.0 - 0.0
25/11:28am 8.9 - 9.0 - - N 28 37 15 20 1016.0 - 0.0
25/11:00am 8.7 - 8.8 - - N 30 37 16 20 1015.9 - 0.0
25/10:30am 8.6 - 8.7 - - N 30 39 16 21 1015.7 - 0.0
25/10:00am 8.6 - 8.7 - - N 32 41 17 22 1015.3 - 0.0
25/09:30am 8.4 2.3 8.4 100 0.0 N 30 35 16 19 1015.1 - 0.0
25/09:00am 8.3 3.0 8.3 100 0.0 N 26 32 14 17 1015.1 1015.9 2.0
25/08:30am 8.2 3.2 8.2 100 0.0 N 24 28 13 15 1014.8 - 2.0
25/08:00am 8.1 2.3 8.1 100 0.0 N 28 32 15 17 1014.5 - 2.0
25/07:30am 8.1 3.1 8.1 100 0.0 N 24 30 13 16 1014.1 - 2.0
25/07:25am 8.0 2.6 8.0 100 0.0 N 26 33 14 18 1014.0 - 2.0
25/07:00am 8.0 2.2 8.0 100 0.0 N 28 33 15 18 1013.7 - 2.0
25/06:59am 8.0 2.2 8.0 100 0.0 N 28 33 15 18 1013.7 - 2.0
25/06:30am 8.2 2.8 8.2 100 0.0 N 26 35 14 19 1013.3 - 1.8
25/06:00am 8.3 3.0 8.3 100 0.0 N 26 32 14 17 1012.9 1013.7 1.8
25/05:30am 8.4 3.1 8.4 100 0.0 N 26 32 14 17 1012.7 - 1.8
25/05:15am 8.5 2.8 8.5 100 0.0 N 28 37 15 20 1012.5 - 1.8
25/05:11am 8.5 2.5 8.5 100 0.0 N 30 39 16 21 1012.5 - 1.4
25/05:00am 8.5 3.2 8.5 100 0.0 N 26 33 14 18 1012.4 - 1.4
25/04:48am 8.5 3.2 8.5 100 0.0 N 26 35 14 19 1012.5 - 1.4
25/04:30am 8.5 3.6 8.5 100 0.0 N 24 30 13 16 1012.5 - 1.4
25/04:00am 8.7 3.1 8.6 99 0.0 N 28 39 15 21 1012.5 - 1.4
25/03:30am 8.7 2.7 8.6 99 0.0 N 30 39 16 21 1012.3 - 1.4
25/03:00am 8.8 3.2 8.7 99 0.0 N 28 35 15 19 1012.3 1013.1 1.4
25/02:30am 8.8 4.0 8.7 99 0.0 N 24 30 13 16 1012.2 - 1.4
25/02:00am 8.8 3.9 8.5 98 0.1 N 24 32 13 17 1012.2 - 1.4
25/01:30am 8.9 4.4 8.6 98 0.1 NNE 22 32 12 17 1012.1 - 1.4
25/01:19am 8.8 4.3 8.5 98 0.1 N 22 28 12 15 1012.2 - 1.4
25/01:00am 8.8 4.7 8.5 98 0.1 N 20 24 11 13 1012.3 - 1.4
25/12:30am 8.7 4.5 8.3 97 0.2 N 20 28 11 15 1012.4 - 1.4
25/12:00am 8.7 4.6 7.9 95 0.4 NNE 19 22 10 12 1012.4 1013.2 1.4
 
Date/Time
EST
Temp
°C
App
Temp
°C
Dew
Point
Rel
Hum
%
Delta-T
°C
Wind Press
QNH
hPa
Press
MSL
hPa
Rain
since 9 am
mm
Dir
 
Spd
km/h
Gust
km/h
Spd
kts
Gust
kts
24/11:30pm 8.5 4.5 8.2 98 0.1 NNE 19 24 10 13 1012.4 - 1.4
24/11:00pm 7.9 4.1 7.6 98 0.1 N 17 20 9 11 1012.7 - 1.4
24/10:30pm 8.9 4.8 7.7 92 0.6 N 19 24 10 13 1012.6 - 1.4
24/10:00pm 8.8 3.6 7.3 90 0.7 NNE 24 33 13 18 1012.5 - 1.4
24/09:30pm 8.7 3.1 7.2 90 0.7 NNE 26 35 14 19 1012.4 - 1.4
24/09:00pm 8.9 3.3 7.2 89 0.8 NNE 26 35 14 19 1012.4 1013.2 1.4
24/08:30pm 9.0 2.7 7.3 89 0.8 NNE 30 44 16 24 1012.4 - 1.4
24/08:00pm 9.5 2.7 6.8 83 1.3 NE 32 43 17 23 1011.8 - 1.4
24/07:30pm 9.2 4.3 6.8 85 1.1 NNE 22 35 12 19 1011.9 - 1.4
24/07:00pm 8.8 4.9 6.9 88 0.9 NNE 17 22 9 12 1011.9 - 1.4
24/06:30pm 8.5 5.2 6.6 88 0.9 NE 13 19 7 10 1011.8 - 1.4
24/06:00pm 8.3 4.6 6.3 87 0.9 NNE 15 20 8 11 1011.6 1012.5 1.4
24/05:30pm 8.8 5.1 6.4 85 1.1 NE 15 22 8 12 1011.5 - 1.4
24/05:00pm 9.1 4.0 6.2 82 1.4 NE 22 30 12 16 1011.3 - 1.4
24/04:30pm 10.1 3.9 6.1 76 1.9 NE 28 41 15 22 1011.1 - 1.4
24/04:00pm 10.9 5.2 6.5 74 2.1 NE 26 35 14 19 1010.8 - 1.4
24/03:30pm 10.8 3.8 6.2 73 2.2 NE 32 41 17 22 1010.7 - 1.4
24/03:00pm 11.6 5.3 7.3 75 2.1 NE 30 44 16 24 1010.7 1011.5 1.4
24/02:30pm 11.2 5.7 7.7 79 1.7 NE 26 39 14 21 1010.7 - 1.4
24/02:00pm 10.5 5.2 8.3 86 1.1 NE 26 35 14 19 1011.1 - 1.4
24/01:30pm 9.8 5.0 8.7 93 0.6 NE 24 33 13 18 1011.8 - 1.4
24/01:00pm 9.6 4.5 9.3 98 0.2 NE 26 35 14 19 1012.5 - 1.2
24/12:30pm 9.1 3.3 8.0 93 0.5 NNE 28 35 15 19 1012.9 - 1.0
24/12:25pm 9.7 4.0 8.3 91 0.7 NNE 28 35 15 19 1013.0 - 1.0
24/12:10pm 10.1 3.8 9.0 93 0.6 NNE 32 41 17 22 1013.2 - 1.0
24/12:00pm 10.1 3.8 9.0 93 0.6 NNE 32 44 17 24 1013.1 1013.9 1.0
24/11:39am 9.9 4.5 9.6 98 0.2 NE 28 41 15 22 1013.3 - 1.0
24/11:30am 9.3 4.1 9.0 98 0.2 NE 26 35 14 19 1013.6 - 1.0
24/11:00am 8.4 3.8 8.3 99 0.0 NE 22 30 12 16 1014.1 - 1.0
24/10:55am 8.3 4.1 8.2 99 0.0 NE 20 30 11 16 1014.1 - 1.0
24/10:30am 7.8 3.1 7.7 99 0.0 NE 22 32 12 17 1014.9 - 1.0
24/10:23am 7.7 2.6 7.6 99 0.0 NE 24 32 13 17 1014.9 - 1.0
24/10:00am 7.4 2.2 7.3 99 0.0 NE 24 33 13 18 1014.8 - 0.6
24/09:45am 7.3 2.5 7.2 99 0.0 NE 22 30 12 16 1014.9 - 0.6
24/09:34am 7.1 1.8 7.0 99 0.0 NE 24 32 13 17 1015.1 - 0.6
24/09:30am 7.2 2.0 7.1 99 0.0 NE 24 33 13 18 1015.2 - 0.6
24/09:00am 7.2 1.2 7.1 99 0.0 NNE 28 35 15 19 1015.1 1015.9 2.8
24/08:30am 7.4 1.8 7.1 98 0.1 NNE 26 39 14 21 1014.8 - 2.4
24/08:20am 7.4 2.6 7.3 99 0.0 NE 22 28 12 15 1014.7 - 2.4
24/08:00am 7.1 2.8 7.0 99 0.0 NE 19 28 10 15 1014.5 - 2.4
24/07:30am 7.0 2.7 6.9 99 0.0 NE 19 24 10 13 1014.5 - 2.0
24/07:16am 7.0 2.5 6.9 99 0.0 NE 20 28 11 15 1014.5 - 2.0
24/07:00am 7.0 2.5 6.9 99 0.0 NE 20 28 11 15 1014.6 - 2.0
24/06:53am 7.1 1.8 7.0 99 0.0 NE 24 33 13 18 1014.6 - 2.0
24/06:50am 7.1 2.2 7.0 99 0.0 NE 22 33 12 18 1014.7 - 2.0
24/06:30am 7.1 2.2 7.0 99 0.0 NE 22 30 12 16 1014.8 - 2.0
24/06:00am 7.2 2.9 7.1 99 0.0 NE 19 26 10 14 1014.9 1015.7 1.8
24/05:30am 6.8 3.9 6.7 99 0.0 NE 11 13 6 7 1015.0 - 1.6
24/05:22am 6.8 3.9 6.7 99 0.0 NNE 11 13 6 7 1015.1 - 1.6
24/05:12am 6.7 4.2 6.6 99 0.0 N 9 13 5 7 1015.2 - 1.2
24/05:00am 6.6 3.7 6.5 99 0.0 NE 11 15 6 8 1015.2 - 0.6
24/04:30am 6.3 2.9 6.0 98 0.1 NNE 13 17 7 9 1015.3 - 0.2
24/04:00am 6.3 2.2 6.0 98 0.1 NNE 17 20 9 11 1015.4 - 0.0
24/03:30am 6.4 1.9 6.1 98 0.1 NNE 19 24 10 13 1015.7 - 0.0
24/03:00am 5.5 1.9 5.2 98 0.1 N 13 20 7 11 1016.0 1016.9 0.0
24/02:30am 6.4 2.7 6.1 98 0.1 N 15 20 8 11 1016.0 - 0.0
24/02:00am 6.4 2.3 6.1 98 0.1 NNE 17 22 9 12 1016.1 - 0.0
24/01:30am 5.9 2.1 5.6 98 0.1 NNE 15 20 8 11 1016.0 - 0.0
24/01:00am 6.1 3.1 5.8 98 0.1 NNE 11 15 6 8 1016.4 - 0.0
24/12:30am 6.4 1.9 6.1 98 0.1 NNE 19 24 10 13 1016.6 - 0.0
24/12:00am 6.2 0.7 5.9 98 0.1 NNE 24 32 13 17 1016.6 1017.5 0.0
 
Date/Time
EST
Temp
°C
App
Temp
°C
Dew
Point
Rel
Hum
%
Delta-T
°C
Wind Press
QNH
hPa
Press
MSL
hPa
Rain
since 9 am
mm
Dir
 
Spd
km/h
Gust
km/h
Spd
kts
Gust
kts
23/11:30pm 5.1 0.1 4.8 98 0.1 NNE 20 24 11 13 1017.0 - 0.0
23/11:00pm 5.5 -0.9 5.2 98 0.1 NNE 28 33 15 18 1017.2 - 0.0
23/10:30pm 5.3 0.0 5.0 98 0.1 NNE 22 28 12 15 1017.6 - 0.0
23/10:00pm 5.3 0.0 5.0 98 0.1 NNE 22 30 12 16 1017.9 - 0.0
23/09:30pm 5.2 -0.5 4.8 97 0.2 NNE 24 32 13 17 1018.3 - 0.0
23/09:00pm 5.2 0.2 3.7 90 0.6 NNE 19 24 10 13 1018.5 1019.4 0.0
23/08:30pm 5.5 0.5 4.5 93 0.4 NNE 20 26 11 14 1018.4 - 0.0
23/08:00pm 5.5 1.5 4.9 96 0.3 NNE 15 24 8 13 1018.6 - 0.0
23/07:30pm 4.8 1.1 4.5 98 0.1 NE 13 17 7 9 1018.4 - 0.0
23/07:00pm 4.9 0.9 4.8 99 0.0 NNE 15 19 8 10 1018.6 - 0.0
23/06:30pm 4.8 0.4 4.5 98 0.1 NNE 17 20 9 11 1018.6 - 0.0
23/06:00pm 5.2 0.3 4.9 98 0.1 N 20 24 11 13 1018.5 1019.4 0.0
23/05:30pm 5.7 0.9 5.4 98 0.1 N 20 26 11 14 1018.5 - 0.0
23/05:00pm 6.8 3.0 5.7 93 0.5 N 15 22 8 12 1018.4 - 0.0
23/04:30pm 7.7 3.1 5.7 87 0.9 N 19 24 10 13 1018.7 - 0.0
23/04:00pm 7.6 2.9 5.9 89 0.8 N 20 28 11 15 1018.6 - 0.0
23/03:30pm 8.0 3.3 6.0 87 0.9 N 20 26 11 14 1018.7 - 0.0
23/03:00pm 8.2 3.1 6.0 86 1.0 N 22 26 12 14 1018.8 1019.7 0.0
23/02:30pm 8.1 2.9 5.6 84 1.2 N 22 28 12 15 1018.8 - 0.0
23/02:00pm 8.3 3.1 5.6 83 1.2 N 22 30 12 16 1018.8 - 0.0
23/01:30pm 8.8 2.8 5.5 80 1.5 N 26 32 14 17 1019.4 - 0.0
23/01:00pm 8.2 2.9 5.1 81 1.4 N 22 28 12 15 1020.0 - 0.0
23/12:30pm 8.2 2.5 5.0 80 1.5 NNE 24 33 13 18 1020.5 - 0.0
23/12:00pm 8.1 2.6 6.1 87 0.9 N 24 32 13 17 1021.1 1022.1 0.0
23/11:30am 7.6 1.6 5.4 86 1.0 N 26 32 14 17 1021.8 - 0.0
23/11:00am 7.0 2.4 6.7 98 0.1 NNE 20 26 11 14 1022.3 - 0.0
23/10:47am 6.4 1.9 6.1 98 0.1 N 19 24 10 13 1022.6 - 0.0
23/10:30am 6.1 1.6 6.0 99 0.0 N 19 24 10 13 1022.8 - 0.0
23/10:25am 5.9 1.3 5.8 99 0.0 N 19 24 10 13 1022.8 - 0.0
23/10:09am 5.2 0.3 5.1 99 0.0 N 20 26 11 14 1022.8 - 0.0
23/10:00am 5.2 0.3 5.1 99 0.0 N 20 26 11 14 1022.8 - 0.0
23/09:43am 5.2 0.9 5.1 99 0.0 N 17 22 9 12 1022.7 - 0.0
23/09:30am 5.2 0.9 5.1 99 0.0 N 17 20 9 11 1022.8 - 0.0
23/09:00am 5.0 0.3 5.0 100 0.0 N 19 24 10 13 1022.7 1023.6 0.4
23/08:40am 3.4 -0.1 3.3 99 0.0 NNE 11 20 6 11 1022.7 - 0.4
23/08:30am 1.1 -2.1 1.0 99 0.0 NE 7 9 4 5 1022.7 - 0.4
23/08:22am 0.4 -2.9 0.3 99 0.0 ENE 7 9 4 5 1022.7 - 0.4
23/08:00am -1.5 -4.8 -1.6 99 0.0 NE 6 7 3 4 1022.6 - 0.4
23/07:45am -2.9 -6.6 -3.0 99 -0.1 NE 7 7 4 4 1022.6 - 0.4
23/07:30am -3.1 -6.6 -3.2 99 -0.1 NE 6 7 3 4 1022.6 - 0.4
23/07:00am -2.4 -6.1 -2.5 99 -0.1 ENE 7 7 4 4 1022.5 - 0.4
23/06:30am -2.3 -5.4 -2.4 99 -0.1 ESE 4 6 2 3 1022.3 - 0.4
23/06:18am -2.7 -5.8 -2.8 99 -0.1 ESE 4 6 2 3 1022.2 - 0.4
23/06:00am -2.1 -5.5 -2.2 99 -0.1 ESE 6 7 3 4 1022.1 1023.0 0.4
23/05:30am -1.6 -5.0 -1.7 99 0.0 ESE 6 9 3 5 1021.9 - 0.4
23/05:00am -2.4 -6.1 -2.5 99 -0.1 ESE 7 7 4 4 1022.0 - 0.4
23/04:30am -2.2 -5.8 -2.3 99 -0.1 ESE 7 9 4 5 1022.1 - 0.4
23/04:00am -2.3 -5.7 -2.4 99 -0.1 ESE 6 7 3 4 1022.2 - 0.4
23/03:30am -2.4 -5.5 -2.5 99 -0.1 ESE 4 6 2 3 1022.4 - 0.4
23/03:00am -1.2 -4.5 -1.3 99 0.0 ESE 6 6 3 3 1022.7 1023.6 0.4
23/02:30am -1.9 -5.5 -2.0 99 -0.1 ESE 7 7 4 4 1022.8 - 0.4
23/02:00am -1.7 -5.1 -1.8 99 0.0 ESE 6 7 3 4 1022.8 - 0.4
23/01:50am -1.8 -5.4 -1.9 99 0.0 ESE 7 7 4 4 1022.9 - 0.4
23/01:30am -1.5 -4.8 -1.6 99 0.0 ESE 6 7 3 4 1022.8 - 0.4
23/01:26am -1.6 -5.0 -1.7 99 0.0 ESE 6 7 3 4 1022.7 - 0.4
23/01:09am -1.2 -4.5 -1.3 99 0.0 ESE 6 7 3 4 1022.7 - 0.4
23/01:00am -0.3 -3.5 -0.4 99 0.0 ESE 6 7 3 4 1022.8 - 0.4
23/12:30am -1.3 -4.6 -1.4 99 0.0 SE 6 6 3 3 1023.0 - 0.4
23/12:23am -0.6 -3.8 -0.7 99 0.0 SE 6 7 3 4 1023.1 - 0.4
23/12:00am -0.6 -3.8 -0.7 99 0.0 ESE 6 7 3 4 1023.5 1024.5 0.4
 
Date/Time
EST
Temp
°C
App
Temp
°C
Dew
Point
Rel
Hum
%
Delta-T
°C
Wind Press
QNH
hPa
Press
MSL
hPa
Rain
since 9 am
mm
Dir
 
Spd
km/h
Gust
km/h
Spd
kts
Gust
kts
22/11:30pm -0.2 -3.4 -0.3 99 0.0 ESE 6 9 3 5 1023.6 - 0.4
22/11:00pm -0.5 -3.9 -0.6 99 0.0 ESE 7 9 4 5 1023.8 - 0.4
22/10:30pm -0.4 -3.6 -0.7 98 0.1 ESE 6 7 3 4 1023.9 - 0.4
22/10:00pm 0.3 -2.8 0.0 98 0.1 ESE 6 7 3 4 1024.0 - 0.4
22/09:39pm 0.1 -3.1 -0.2 98 0.1 ESE 6 7 3 4 1024.0 - 0.4
22/09:38pm 0.2 -2.9 -0.1 98 0.1 ESE 6 7 3 4 1024.0 - 0.4
22/09:30pm 0.0 -3.2 -0.3 98 0.1 ESE 6 7 3 4 1023.9 - 0.4
22/09:00pm -0.1 -2.1 -0.4 98 0.1 CALM 0 0 0 0 1023.8 1024.8 0.4
22/08:56pm 0.0 -2.0 -0.3 98 0.1 CALM 0 0 0 0 1023.7 - 0.4
22/08:30pm 0.8 -1.1 0.5 98 0.1 CALM 0 0 0 0 1023.6 - 0.4

Other Formats:

Comma delimited format used in spreadsheet applications
http://www.bom.gov.au/fwo/IDV60801/IDV60801.94852.axf

JavaScript Object Notation format (JSON) in row-major order
http://www.bom.gov.au/fwo/IDV60801/IDV60801.94852.json